createdAt,value
2018-05-18T00:02:17.059Z,96.00
2018-05-18T00:04:44.577Z,96.20
2018-05-18T00:07:12.866Z,96.30
2018-05-18T00:09:40.409Z,96.30
2018-05-18T00:12:08.694Z,96.30
2018-05-18T00:14:36.979Z,96.50
2018-05-18T00:17:04.496Z,96.50
2018-05-18T00:19:32.022Z,96.40
2018-05-18T00:21:59.537Z,96.60
2018-05-18T00:24:27.822Z,96.90
2018-05-18T00:26:56.101Z,96.90
2018-05-18T00:29:24.381Z,96.80
2018-05-18T00:31:52.668Z,96.90
2018-05-18T00:34:20.194Z,96.90
2018-05-18T00:36:47.710Z,97.00
2018-05-18T00:39:15.237Z,97.00
2018-05-18T00:41:43.517Z,96.70
2018-05-18T00:44:11.034Z,96.70
2018-05-18T00:46:38.566Z,96.70
2018-05-18T00:49:06.090Z,96.90
2018-05-18T00:51:33.615Z,97.10
2018-05-18T00:54:01.138Z,97.10
2018-05-18T00:56:28.659Z,97.10
2018-05-18T00:58:56.949Z,97.20
2018-05-18T01:01:24.469Z,97.20
2018-05-18T01:03:52.005Z,97.30
2018-05-18T01:06:19.517Z,97.20
2018-05-18T01:08:47.801Z,97.40
2018-05-18T01:11:15.333Z,97.30
2018-05-18T01:13:42.845Z,97.20
2018-05-18T01:16:10.364Z,96.90
2018-05-18T01:18:38.655Z,96.60
2018-05-18T01:21:06.193Z,96.60
2018-05-18T01:23:34.482Z,96.70
2018-05-18T01:26:02.769Z,96.70
2018-05-18T01:28:30.301Z,96.70
2018-05-18T01:30:57.814Z,96.60
2018-05-18T01:33:25.334Z,96.70
2018-05-18T01:35:53.628Z,96.60
2018-05-18T01:38:21.145Z,96.60
2018-05-18T01:40:48.666Z,96.50
2018-05-18T01:43:16.178Z,97.00
2018-05-18T01:45:44.489Z,96.60
2018-05-18T01:48:12.006Z,96.50
2018-05-18T01:50:39.522Z,96.50
2018-05-18T01:53:07.046Z,96.60
2018-05-18T01:55:34.566Z,96.70
2018-05-18T01:58:02.089Z,97.00
2018-05-18T02:00:29.609Z,96.70
2018-05-18T02:02:57.893Z,97.00
2018-05-18T02:05:26.173Z,97.30
2018-05-18T02:07:53.702Z,97.30
2018-05-18T02:10:21.223Z,97.70
2018-05-18T02:12:48.749Z,97.90
2018-05-18T02:15:16.275Z,98.10
2018-05-18T02:17:43.805Z,98.20
2018-05-18T02:20:11.324Z,98.30
2018-05-18T02:22:39.622Z,98.70
2018-05-18T02:25:07.161Z,98.70
2018-05-18T02:27:35.455Z,98.60
2018-05-18T02:30:02.994Z,98.60
2018-05-18T02:32:31.277Z,99.00
2018-05-18T02:34:58.797Z,99.00
2018-05-18T02:37:26.320Z,99.30
2018-05-18T02:39:53.846Z,99.40
2018-05-18T02:42:21.385Z,99.50
2018-05-18T02:44:48.910Z,99.70
2018-05-18T02:47:16.437Z,99.70
2018-05-18T02:49:43.978Z,99.60
2018-05-18T02:52:12.261Z,99.60
2018-05-18T02:54:40.541Z,99.20
2018-05-18T02:57:08.069Z,99.20
2018-05-18T02:59:35.582Z,99.30
2018-05-18T03:02:03.105Z,99.50
2018-05-18T03:04:31.398Z,99.30
2018-05-18T03:06:58.925Z,99.30
2018-05-18T03:09:26.445Z,99.20
2018-05-18T03:11:53.958Z,99.30
2018-05-18T03:14:22.253Z,99.10
2018-05-18T03:16:49.769Z,99.10
2018-05-18T03:19:17.287Z,99.50
2018-05-18T03:21:44.806Z,99.60
2018-05-18T03:24:13.108Z,99.80
2018-05-18T03:26:40.633Z,99.80
2018-05-18T03:29:08.153Z,99.90
2018-05-18T03:31:35.673Z,99.90
2018-05-18T03:34:03.962Z,99.90
2018-05-18T03:36:31.497Z,99.90
2018-05-18T03:38:59.773Z,99.90
2018-05-18T03:41:28.068Z,99.90
2018-05-18T03:43:55.589Z,99.90
2018-05-18T03:46:23.104Z,99.90
2018-05-18T03:48:50.636Z,99.50
2018-05-18T03:51:18.917Z,99.80
2018-05-18T03:53:46.458Z,99.70
2018-05-18T03:56:13.970Z,99.90
2018-05-18T03:58:41.488Z,99.90
2018-05-18T04:01:09.775Z,99.90
2018-05-18T04:03:49.187Z,99.90
2018-05-18T04:06:29.433Z,99.90
2018-05-18T04:08:56.953Z,99.90
2018-05-18T04:11:24.532Z,99.90
2018-05-18T04:13:52.001Z,99.90
2018-05-18T04:16:19.525Z,99.90
2018-05-18T04:18:47.045Z,99.90
2018-05-18T04:21:15.342Z,99.90
2018-05-18T04:23:42.859Z,99.90
2018-05-18T04:26:10.461Z,99.90
2018-05-18T04:28:37.995Z,99.90
2018-05-18T04:31:05.514Z,99.90
2018-05-18T04:33:33.035Z,99.90
2018-05-18T04:36:00.551Z,99.90
2018-05-18T04:38:28.841Z,99.90
2018-05-18T04:40:56.362Z,99.90
2018-05-18T04:43:23.910Z,99.90
2018-05-18T04:45:51.413Z,99.90
2018-05-18T04:48:18.933Z,99.90
2018-05-18T04:50:46.458Z,99.90
2018-05-18T04:53:14.746Z,99.90
2018-05-18T04:55:42.258Z,99.90
2018-05-18T04:58:09.775Z,99.90
2018-05-18T05:00:37.281Z,99.90
2018-05-18T05:03:04.807Z,99.90
2018-05-18T05:05:32.369Z,99.90
2018-05-18T05:08:00.617Z,99.90
2018-05-18T05:10:28.125Z,99.90
2018-05-18T05:12:55.650Z,99.90
2018-05-18T05:15:23.178Z,99.90
2018-05-18T05:17:51.504Z,99.90
2018-05-18T05:20:19.008Z,99.90
2018-05-18T05:22:47.281Z,99.90
2018-05-18T05:25:15.565Z,99.90
2018-05-18T05:27:43.857Z,99.90
2018-05-18T05:30:11.382Z,99.90
2018-05-18T05:32:39.662Z,99.90
2018-05-18T05:35:07.182Z,99.90
2018-05-18T05:37:34.690Z,99.30
2018-05-18T05:40:02.976Z,98.90
2018-05-18T05:42:31.249Z,98.50
2018-05-18T05:44:59.535Z,98.80
2018-05-18T05:47:27.091Z,98.90
2018-05-18T05:49:54.613Z,98.80
2018-05-18T05:52:22.137Z,98.70
2018-05-18T05:54:49.654Z,98.40
2018-05-18T05:57:17.941Z,98.20
2018-05-18T05:59:46.230Z,97.80
2018-05-18T06:02:13.753Z,97.70
2018-05-18T06:04:41.270Z,98.00
2018-05-18T06:07:08.794Z,98.30
2018-05-18T06:09:37.081Z,97.20
2018-05-18T06:12:04.599Z,97.20
2018-05-18T06:14:32.128Z,97.20
2018-05-18T06:16:59.649Z,96.10
2018-05-18T06:19:27.927Z,95.50
2018-05-18T06:21:55.461Z,95.50
2018-05-18T06:24:23.007Z,95.10
2018-05-18T06:26:50.536Z,94.80
2018-05-18T06:29:18.049Z,95.60
2018-05-18T06:31:46.329Z,95.00
2018-05-18T06:34:14.618Z,94.80
2018-05-18T06:36:42.137Z,94.70
2018-05-18T06:39:09.667Z,94.70
2018-05-18T06:41:37.182Z,94.30
2018-05-18T06:44:05.476Z,94.00
2018-05-18T06:46:32.997Z,94.00
2018-05-18T06:49:00.526Z,93.90
2018-05-18T06:51:28.046Z,93.80
2018-05-18T06:53:56.313Z,92.70
2018-05-18T06:56:24.594Z,92.10
2018-05-18T06:58:52.967Z,92.60
2018-05-18T07:01:20.401Z,92.60
2018-05-18T07:03:47.934Z,92.00
2018-05-18T07:06:15.470Z,92.90
2018-05-18T07:08:42.985Z,93.20
2018-05-18T07:11:10.512Z,93.30
2018-05-18T07:13:38.026Z,92.70
2018-05-18T07:16:05.557Z,92.00
2018-05-18T07:18:33.073Z,91.80
2018-05-18T07:21:00.589Z,92.00
2018-05-18T07:23:28.881Z,91.50
2018-05-18T07:25:56.405Z,91.40
2018-05-18T07:28:23.929Z,91.80
2018-05-18T07:30:51.442Z,91.90
2018-05-18T07:33:19.730Z,91.70
2018-05-18T07:35:48.006Z,91.70
2018-05-18T07:38:16.298Z,91.40
2018-05-18T07:40:43.842Z,91.40
2018-05-18T07:43:12.135Z,90.80
2018-05-18T07:45:39.661Z,90.80
2018-05-18T07:48:07.953Z,90.10
2018-05-18T07:50:36.241Z,90.70
2018-05-18T07:53:03.787Z,90.70
2018-05-18T07:55:32.069Z,89.30
2018-05-18T07:58:00.353Z,90.20
2018-05-18T08:00:27.865Z,90.10
2018-05-18T08:02:55.385Z,89.00
2018-05-18T08:05:22.936Z,86.80
2018-05-18T08:07:50.565Z,87.30
2018-05-18T08:10:18.014Z,84.60
2018-05-18T08:12:45.537Z,85.00
2018-05-18T08:15:13.194Z,83.90
2018-05-18T08:17:40.602Z,84.40
2018-05-18T08:20:08.893Z,84.90
2018-05-18T08:22:36.418Z,84.80
2018-05-18T08:25:04.730Z,82.90
2018-05-18T08:27:33.062Z,83.40
2018-05-18T08:30:00.549Z,83.40
2018-05-18T08:32:28.061Z,83.50
2018-05-18T08:34:55.582Z,83.90
2018-05-18T08:37:23.876Z,81.60
2018-05-18T08:39:51.394Z,81.60
2018-05-18T08:42:18.917Z,83.30
2018-05-18T08:44:46.442Z,82.10
2018-05-18T08:47:13.966Z,81.50
2018-05-18T08:49:41.494Z,83.20
2018-05-18T08:52:09.010Z,81.80
2018-05-18T08:54:37.297Z,82.40
2018-05-18T08:57:04.817Z,82.20
2018-05-18T08:59:32.345Z,79.90
2018-05-18T09:01:59.865Z,82.00
2018-05-18T09:04:28.163Z,80.00
2018-05-18T09:06:55.674Z,79.80
2018-05-18T09:09:23.969Z,79.60
2018-05-18T09:11:52.254Z,77.00
2018-05-18T09:14:20.541Z,74.30
2018-05-18T09:16:48.063Z,74.20
2018-05-18T09:19:15.586Z,73.90
2018-05-18T09:21:43.115Z,73.40
2018-05-18T09:24:10.629Z,74.40
2018-05-18T09:26:38.180Z,73.60
2018-05-18T09:29:05.697Z,70.00
2018-05-18T09:31:33.209Z,70.10
2018-05-18T09:34:00.804Z,71.90
2018-05-18T09:36:28.276Z,72.40
2018-05-18T09:38:55.789Z,69.60
2018-05-18T09:41:23.338Z,69.40
2018-05-18T09:43:50.866Z,70.10
2018-05-18T09:46:18.398Z,68.70
2018-05-18T09:48:46.678Z,70.50
2018-05-18T09:51:14.202Z,70.40
2018-05-18T09:53:41.737Z,68.40
2018-05-18T09:56:09.261Z,66.80
2018-05-18T09:58:36.781Z,66.80
2018-05-18T10:01:04.306Z,66.10
2018-05-18T10:03:35.077Z,67.90
2018-05-18T10:06:04.101Z,66.20
2018-05-18T10:08:31.618Z,67.10
2018-05-18T10:10:59.137Z,67.50
2018-05-18T10:13:26.685Z,68.50
2018-05-18T10:15:54.201Z,66.50
2018-05-18T10:18:21.725Z,66.80
2018-05-18T10:20:49.249Z,67.00
2018-05-18T10:23:17.541Z,66.50
2018-05-18T10:25:45.053Z,66.60
2018-05-18T10:28:12.584Z,67.00
2018-05-18T10:30:40.101Z,67.20
2018-05-18T10:33:08.398Z,69.00
2018-05-18T10:35:35.914Z,69.00
2018-05-18T10:38:04.197Z,67.40
2018-05-18T10:40:31.729Z,67.40
2018-05-18T10:42:59.250Z,67.70
2018-05-18T10:45:26.767Z,67.20
2018-05-18T10:47:55.074Z,64.70
2018-05-18T10:50:22.614Z,64.60
2018-05-18T10:52:50.894Z,64.70
2018-05-18T10:55:19.173Z,63.70
2018-05-18T10:57:47.465Z,61.90
2018-05-18T11:00:14.982Z,62.00
2018-05-18T11:02:42.495Z,60.90
2018-05-18T11:05:10.014Z,60.90
2018-05-18T11:07:37.534Z,60.80
2018-05-18T11:10:05.050Z,61.70
2018-05-18T11:12:33.341Z,59.90
2018-05-18T11:15:00.850Z,59.90
2018-05-18T11:17:28.370Z,60.50
2018-05-18T11:19:55.893Z,60.60
2018-05-18T11:22:24.182Z,58.80
2018-05-18T11:24:51.709Z,58.80
2018-05-18T11:27:19.998Z,59.00
2018-05-18T11:29:47.517Z,59.10
2018-05-18T11:32:15.037Z,59.00
2018-05-18T11:34:43.323Z,58.70
2018-05-18T11:37:10.865Z,58.70
2018-05-18T11:39:39.161Z,58.30
2018-05-18T11:42:06.704Z,58.30
2018-05-18T11:44:35.006Z,58.00
2018-05-18T11:47:02.522Z,58.00
2018-05-18T11:49:30.805Z,58.80
2018-05-18T11:51:59.091Z,59.30
2018-05-18T11:54:27.365Z,59.90
2018-05-18T11:56:55.651Z,58.40
2018-05-18T11:59:23.177Z,58.40
2018-05-18T12:01:52.197Z,58.10
2018-05-18T12:04:20.472Z,57.90
2018-05-18T12:06:48.757Z,58.00
2018-05-18T12:09:17.030Z,58.40
2018-05-18T12:11:45.313Z,59.40
2018-05-18T12:14:12.906Z,59.40
2018-05-18T12:16:41.141Z,58.50
2018-05-18T12:19:09.417Z,59.70
2018-05-18T12:21:37.710Z,61.00
2018-05-18T12:24:05.230Z,60.90
2018-05-18T12:26:32.749Z,62.10
2018-05-18T12:29:00.274Z,61.90
2018-05-18T12:31:28.621Z,62.10
2018-05-18T12:33:56.093Z,62.10
2018-05-18T12:36:23.605Z,61.50
2018-05-18T12:38:51.121Z,62.70
2018-05-18T12:41:19.397Z,64.30
2018-05-18T12:43:47.693Z,63.90
2018-05-18T12:46:15.209Z,63.90
2018-05-18T12:48:42.721Z,61.30
2018-05-18T12:51:10.241Z,62.20
2018-05-18T12:53:38.518Z,59.20
2018-05-18T12:56:06.797Z,58.30
2018-05-18T12:58:35.081Z,58.40
2018-05-18T13:01:03.384Z,57.20
2018-05-18T13:03:30.907Z,57.10
2018-05-18T13:05:59.190Z,55.70
2018-05-18T13:08:27.470Z,54.50
2018-05-18T13:10:55.764Z,51.80
2018-05-18T13:13:23.277Z,51.80
2018-05-18T13:15:52.426Z,53.50
2018-05-18T13:18:19.858Z,53.50
2018-05-18T13:20:48.138Z,54.80
2018-05-18T13:23:16.429Z,54.50
2018-05-18T13:25:43.953Z,54.50
2018-05-18T13:28:11.506Z,53.80
2018-05-18T13:30:39.066Z,53.90
2018-05-18T13:33:06.583Z,52.30
2018-05-18T13:35:34.148Z,51.60
2018-05-18T13:38:01.677Z,51.70
2018-05-18T13:40:29.204Z,52.10
2018-05-18T13:42:56.725Z,53.50
2018-05-18T13:45:24.261Z,54.70
2018-05-18T13:47:51.790Z,54.40
2018-05-18T13:50:20.105Z,54.80
2018-05-18T13:52:47.634Z,54.80
2018-05-18T13:55:15.917Z,54.30
2018-05-18T13:57:44.201Z,54.80
2018-05-18T14:00:11.714Z,54.80
2018-05-18T14:02:39.234Z,54.60
2018-05-18T14:05:06.751Z,53.50
2018-05-18T14:07:34.274Z,52.50
2018-05-18T14:10:01.787Z,51.60
2018-05-18T14:12:30.069Z,52.40
2018-05-18T14:14:57.595Z,52.40
2018-05-18T14:17:25.110Z,52.50
2018-05-18T14:19:52.629Z,54.00
2018-05-18T14:22:20.913Z,56.20
2018-05-18T14:24:49.190Z,57.40
2018-05-18T14:27:17.477Z,57.90
2018-05-18T14:29:44.989Z,57.80
2018-05-18T14:32:12.509Z,57.50
2018-05-18T14:34:40.029Z,58.20
2018-05-18T14:37:07.551Z,58.60
2018-05-18T14:39:35.070Z,57.50
2018-05-18T14:42:02.590Z,55.30
2018-05-18T14:44:30.113Z,54.80
2018-05-18T14:46:57.629Z,54.20
2018-05-18T14:49:25.919Z,54.10
2018-05-18T14:51:54.189Z,52.30
2018-05-18T14:54:21.730Z,52.30
2018-05-18T14:56:50.749Z,51.10
2018-05-18T14:59:18.273Z,51.20
2018-05-18T15:01:45.787Z,51.40
2018-05-18T15:04:13.309Z,51.40
2018-05-18T15:06:41.606Z,52.20
2018-05-18T15:09:09.126Z,52.20
2018-05-18T15:11:38.142Z,51.90
2018-05-18T15:14:06.424Z,51.50
2018-05-18T15:16:34.708Z,50.40
2018-05-18T15:19:02.246Z,50.30
2018-05-18T15:21:30.542Z,49.50
2018-05-18T15:23:58.830Z,49.40
2018-05-18T15:26:26.351Z,49.40
2018-05-18T15:28:53.878Z,48.40
2018-05-18T15:31:21.397Z,49.00
2018-05-18T15:33:49.678Z,48.30
2018-05-18T15:36:17.197Z,48.20
2018-05-18T15:38:45.479Z,47.00
2018-05-18T15:41:13.007Z,47.00
2018-05-18T15:43:40.526Z,46.40
2018-05-18T15:46:08.802Z,46.80
2018-05-18T15:48:37.089Z,46.20
2018-05-18T15:51:04.598Z,46.20
2018-05-18T15:53:32.121Z,47.30
2018-05-18T15:55:59.638Z,51.30
2018-05-18T15:58:27.938Z,55.00
2018-05-18T16:00:55.457Z,55.00
2018-05-18T16:03:23.743Z,57.50
2018-05-18T16:05:51.258Z,57.60
2018-05-18T16:08:18.776Z,60.50
2018-05-18T16:10:47.058Z,54.70
2018-05-18T16:13:15.326Z,58.70
2018-05-18T16:15:43.601Z,56.30
2018-05-18T16:18:11.870Z,55.70
2018-05-18T16:20:39.394Z,55.70
2018-05-18T16:23:06.902Z,59.90
2018-05-18T16:25:35.181Z,64.00
2018-05-18T16:28:02.714Z,64.00
2018-05-18T16:30:30.260Z,66.10
2018-05-18T16:32:57.777Z,68.30
2018-05-18T16:35:25.290Z,69.70
2018-05-18T16:37:52.817Z,69.40
2018-05-18T16:40:20.325Z,72.30
2018-05-18T16:42:48.598Z,74.70
2018-05-18T16:45:16.903Z,79.10
2018-05-18T16:47:44.409Z,79.10
2018-05-18T16:50:11.930Z,75.60
2018-05-18T16:52:39.449Z,79.20
2018-05-18T16:55:07.737Z,85.00
2018-05-18T16:57:36.029Z,84.20
2018-05-18T17:00:03.545Z,84.10
2018-05-18T17:02:31.081Z,84.40
2018-05-18T17:04:58.594Z,85.50
2018-05-18T17:07:26.869Z,85.40
2018-05-18T17:09:55.158Z,84.20
2018-05-18T17:12:22.704Z,84.20
2018-05-18T17:14:50.209Z,84.50
2018-05-18T17:17:17.717Z,83.70
2018-05-18T17:19:46.082Z,84.20
2018-05-18T17:22:13.537Z,84.10
2018-05-18T17:24:41.079Z,84.50
2018-05-18T17:27:08.594Z,86.50
2018-05-18T17:29:36.113Z,86.80
2018-05-18T17:32:03.626Z,88.20
2018-05-18T17:34:31.129Z,87.10
2018-05-18T17:36:58.653Z,85.70
2018-05-18T17:39:26.166Z,86.20
2018-05-18T17:41:54.457Z,90.50
2018-05-18T17:44:22.005Z,90.10
2018-05-18T17:46:50.291Z,90.10
2018-05-18T17:49:17.825Z,90.10
2018-05-18T17:51:46.178Z,91.30
2018-05-18T17:54:14.401Z,91.90
2018-05-18T17:56:41.946Z,91.90
2018-05-18T17:59:10.229Z,92.50
2018-05-18T18:01:38.514Z,92.00
2018-05-18T18:04:06.046Z,91.90
2018-05-18T18:06:33.625Z,91.20
2018-05-18T18:09:01.990Z,91.20
2018-05-18T18:11:30.601Z,91.80
2018-05-18T18:13:58.345Z,91.80
2018-05-18T18:16:27.093Z,92.70
2018-05-18T18:18:55.476Z,92.70
2018-05-18T18:21:24.097Z,92.20
2018-05-18T18:23:51.764Z,92.10
2018-05-18T18:26:19.613Z,90.80
2018-05-18T18:28:48.309Z,90.00
2018-05-18T18:31:16.420Z,90.00
2018-05-18T18:33:44.071Z,90.20
2018-05-18T18:36:12.248Z,90.80
2018-05-18T18:38:40.938Z,91.20
2018-05-18T18:41:09.016Z,90.20
2018-05-18T18:43:36.905Z,90.30
2018-05-18T18:46:05.300Z,90.00
2018-05-18T18:48:33.418Z,90.50
2018-05-18T18:51:01.898Z,89.70
2018-05-18T18:53:29.785Z,88.80
2018-05-18T18:55:58.153Z,90.00
2018-05-18T18:58:25.890Z,90.20
2018-05-18T19:00:53.739Z,90.30
2018-05-18T19:03:21.438Z,90.10
2018-05-18T19:05:49.101Z,90.50
2018-05-18T19:08:17.948Z,90.00
2018-05-18T19:10:46.098Z,90.00
2018-05-18T19:13:13.709Z,89.80
2018-05-18T19:15:42.318Z,88.10
2018-05-18T19:18:09.838Z,88.10
2018-05-18T19:20:38.210Z,86.50
2018-05-18T19:23:05.657Z,86.90
2018-05-18T19:25:33.178Z,84.80
2018-05-18T19:28:00.685Z,85.50
2018-05-18T19:30:28.970Z,88.80
2018-05-18T19:32:57.266Z,89.30
2018-05-18T19:35:24.782Z,89.30
2018-05-18T19:37:52.306Z,90.20
2018-05-18T19:40:19.825Z,91.20
2018-05-18T19:42:48.114Z,91.30
2018-05-18T19:45:16.385Z,91.00
2018-05-18T19:47:44.673Z,91.10
2018-05-18T19:50:12.189Z,91.00
2018-05-18T19:52:39.703Z,91.10
2018-05-18T19:55:07.228Z,90.50
2018-05-18T19:57:35.595Z,90.10
2018-05-18T20:00:03.048Z,90.00
2018-05-18T20:02:30.570Z,90.20
2018-05-18T20:04:58.090Z,90.20
2018-05-18T20:07:26.373Z,90.00
2018-05-18T20:09:54.657Z,90.10
2018-05-18T20:12:22.203Z,90.10
2018-05-18T20:14:49.706Z,90.40
2018-05-18T20:17:17.218Z,90.60
2018-05-18T20:19:45.593Z,90.80
2018-05-18T20:22:13.025Z,90.80
2018-05-18T20:24:40.541Z,90.80
2018-05-18T20:27:08.065Z,91.00
2018-05-18T20:29:36.350Z,91.50
2018-05-18T20:32:04.642Z,91.70
2018-05-18T20:34:32.153Z,91.60
2018-05-18T20:36:59.674Z,91.80
2018-05-18T20:39:27.197Z,92.00
2018-05-18T20:41:55.482Z,91.70
2018-05-18T20:44:23.769Z,91.70
2018-05-18T20:46:51.298Z,91.70
2018-05-18T20:49:18.822Z,91.50
2018-05-18T20:51:46.472Z,91.20
2018-05-18T20:54:14.730Z,91.40
2018-05-18T20:56:42.265Z,91.80
2018-05-18T20:59:10.555Z,91.70
2018-05-18T21:01:38.843Z,91.80
2018-05-18T21:04:06.365Z,91.80
2018-05-18T21:06:33.884Z,91.80
2018-05-18T21:09:01.410Z,92.30
2018-05-18T21:11:28.957Z,91.90
2018-05-18T21:13:57.257Z,92.20
2018-05-18T21:16:24.782Z,92.10
2018-05-18T21:18:52.333Z,92.30
2018-05-18T21:21:19.858Z,92.30
2018-05-18T21:23:47.378Z,92.20
2018-05-18T21:26:15.645Z,92.00
2018-05-18T21:28:43.946Z,92.10
2018-05-18T21:31:11.490Z,92.10
2018-05-18T21:33:39.774Z,92.20
2018-05-18T21:36:07.309Z,92.10
2018-05-18T21:38:35.605Z,92.10
2018-05-18T21:41:03.125Z,92.00
2018-05-18T21:43:30.653Z,92.00
2018-05-18T21:45:58.167Z,92.10
2018-05-18T21:48:26.449Z,92.10
2018-05-18T21:50:54.752Z,92.50
2018-05-18T21:53:22.266Z,92.20
2018-05-18T21:55:49.785Z,92.20
2018-05-18T21:58:17.309Z,92.20
2018-05-18T22:00:45.589Z,92.30
2018-05-18T22:03:13.113Z,92.30
2018-05-18T22:05:40.641Z,92.30
2018-05-18T22:08:08.157Z,92.30
2018-05-18T22:10:36.461Z,92.40
2018-05-18T22:13:03.973Z,92.40
2018-05-18T22:15:32.998Z,92.50
2018-05-18T22:18:00.520Z,92.50
2018-05-18T22:20:28.042Z,92.70
2018-05-18T22:22:55.557Z,92.80
2018-05-18T22:25:23.863Z,92.70
2018-05-18T22:27:51.402Z,92.70
2018-05-18T22:30:19.673Z,92.90
2018-05-18T22:32:47.961Z,92.90
2018-05-18T22:35:16.246Z,93.00
2018-05-18T22:37:43.774Z,93.00
2018-05-18T22:40:12.078Z,93.20
2018-05-18T22:42:39.594Z,93.10
2018-05-18T22:45:07.102Z,93.30
2018-05-18T22:47:34.629Z,93.30
2018-05-18T22:50:02.909Z,93.60
2018-05-18T22:52:31.210Z,93.20
2018-05-18T22:54:58.725Z,93.10
2018-05-18T22:57:26.249Z,93.20
2018-05-18T22:59:53.774Z,93.20
2018-05-18T23:02:22.053Z,93.40
2018-05-18T23:04:50.340Z,93.50
2018-05-18T23:07:17.889Z,93.50
2018-05-18T23:09:46.166Z,93.40
2018-05-18T23:12:14.442Z,93.60
2018-05-18T23:14:41.981Z,93.50
2018-05-18T23:17:09.497Z,94.00
2018-05-18T23:19:37.013Z,93.90
2018-05-18T23:22:05.301Z,94.60
2018-05-18T23:24:32.809Z,94.60
2018-05-18T23:27:00.334Z,94.60
2018-05-18T23:29:27.853Z,94.60
2018-05-18T23:31:56.211Z,94.50
2018-05-18T23:34:23.768Z,94.50
2018-05-18T23:36:51.989Z,94.50
2018-05-18T23:39:19.505Z,94.40
2018-05-18T23:41:47.026Z,94.40
2018-05-18T23:44:14.538Z,94.40
2018-05-18T23:46:42.834Z,94.10
2018-05-18T23:49:11.108Z,94.30
2018-05-18T23:51:39.411Z,94.30
2018-05-18T23:54:06.922Z,94.20
2018-05-18T23:56:34.435Z,94.20
2018-05-18T23:59:01.963Z,94.10
